createdAt,value
2018-05-06T00:01:25.299Z,2.57
2018-05-06T00:03:54.333Z,2.30
2018-05-06T00:06:22.812Z,2.20
2018-05-06T00:08:50.451Z,2.73
2018-05-06T00:11:18.087Z,2.40
2018-05-06T00:13:46.167Z,2.23
2018-05-06T00:16:15.195Z,2.10
2018-05-06T00:18:42.903Z,2.70
2018-05-06T00:21:10.563Z,2.93
2018-05-06T00:23:39.896Z,2.83
2018-05-06T00:26:09.066Z,2.63
2018-05-06T00:28:37.486Z,2.50
2018-05-06T00:31:06.472Z,2.80
2018-05-06T00:33:35.645Z,3.40
2018-05-06T00:36:04.129Z,3.43
2018-05-06T00:38:32.914Z,2.90
2018-05-06T00:41:01.902Z,3.10
2018-05-06T00:43:30.308Z,3.07
2018-05-06T00:45:57.940Z,3.10
2018-05-06T00:48:26.373Z,3.40
2018-05-06T00:50:53.993Z,3.30
2018-05-06T00:53:22.787Z,3.13
2018-05-06T00:55:50.452Z,3.33
2018-05-06T00:58:18.909Z,3.00
2018-05-06T01:00:46.559Z,3.60
2018-05-06T01:03:15.530Z,3.53
2018-05-06T01:05:43.258Z,3.00
2018-05-06T01:08:11.671Z,3.57
2018-05-06T01:10:40.727Z,3.00
2018-05-06T01:13:08.358Z,3.13
2018-05-06T01:15:37.695Z,3.23
2018-05-06T01:18:06.116Z,2.97
2018-05-06T01:20:34.167Z,2.73
2018-05-06T01:23:02.576Z,3.30
2018-05-06T01:25:31.408Z,3.23
2018-05-06T01:27:59.476Z,2.77
2018-05-06T01:30:27.930Z,3.20
2018-05-06T01:32:56.707Z,3.40
2018-05-06T01:35:25.866Z,3.70
2018-05-06T01:37:53.932Z,3.40
2018-05-06T01:40:21.949Z,3.40
2018-05-06T01:42:50.857Z,3.10
2018-05-06T01:45:19.252Z,3.47
2018-05-06T01:47:47.668Z,3.57
2018-05-06T01:50:16.888Z,3.10
2018-05-06T01:52:45.296Z,3.10
2018-05-06T01:55:14.233Z,3.33
2018-05-06T01:57:41.861Z,3.30
2018-05-06T02:00:10.286Z,3.00
2018-05-06T02:02:37.971Z,3.40
2018-05-06T02:05:06.976Z,3.37
2018-05-06T02:07:37.232Z,3.20
2018-05-06T02:10:06.502Z,3.20
2018-05-06T02:12:35.497Z,3.50
2018-05-06T02:15:04.623Z,3.87
2018-05-06T02:17:32.295Z,3.80
2018-05-06T02:20:01.087Z,3.77
2018-05-06T02:22:28.724Z,3.83
2018-05-06T02:24:57.163Z,3.63
2018-05-06T02:27:25.953Z,3.30
2018-05-06T02:29:53.647Z,3.63
2018-05-06T02:32:21.340Z,3.30
2018-05-06T02:34:49.759Z,3.43
2018-05-06T02:37:18.169Z,3.70
2018-05-06T02:39:46.209Z,3.90
2018-05-06T02:42:14.607Z,3.60
2018-05-06T02:44:42.386Z,4.03
2018-05-06T02:47:11.170Z,3.60
2018-05-06T02:49:40.336Z,3.70
2018-05-06T02:52:09.522Z,3.43
2018-05-06T02:54:37.917Z,4.07
2018-05-06T02:57:06.414Z,3.97
2018-05-06T02:59:34.833Z,4.47
2018-05-06T03:02:02.548Z,4.07
2018-05-06T03:04:31.693Z,3.97
2018-05-06T03:07:00.665Z,4.10
2018-05-06T03:09:29.849Z,3.80
2018-05-06T03:11:57.891Z,4.43
2018-05-06T03:14:25.905Z,4.40
2018-05-06T03:16:53.628Z,5.00
2018-05-06T03:19:22.033Z,4.10
2018-05-06T03:21:49.663Z,3.97
2018-05-06T03:24:18.525Z,4.10
2018-05-06T03:26:46.962Z,4.10
2018-05-06T03:29:16.127Z,3.93
2018-05-06T03:31:45.310Z,4.83
2018-05-06T03:34:12.959Z,3.77
2018-05-06T03:36:41.353Z,3.90
2018-05-06T03:39:09.020Z,4.83
2018-05-06T03:41:37.449Z,4.17
2018-05-06T03:44:07.397Z,4.77
2018-05-06T03:46:35.905Z,4.33
2018-05-06T03:49:04.894Z,4.27
2018-05-06T03:51:32.668Z,4.37
2018-05-06T03:54:00.690Z,4.47
2018-05-06T04:10:14.266Z,4.47
2018-05-06T04:12:42.336Z,4.47
2018-05-06T04:15:31.670Z,4.43
2018-05-06T04:17:59.328Z,4.40
2018-05-06T04:20:52.604Z,4.77
2018-05-06T04:23:21.773Z,4.27
2018-05-06T04:25:50.957Z,3.70
2018-05-06T04:28:19.383Z,4.23
2018-05-06T04:30:52.068Z,4.23
2018-05-06T04:33:19.716Z,4.00
2018-05-06T04:35:48.186Z,4.60
2018-05-06T04:38:17.323Z,4.23
2018-05-06T04:40:53.668Z,4.40
2018-05-06T04:43:21.316Z,3.87
2018-05-06T04:45:53.005Z,3.67
2018-05-06T04:48:22.235Z,4.60
2018-05-06T04:54:02.905Z,4.23
2018-05-06T04:56:31.354Z,4.03
2018-05-06T04:59:19.027Z,4.27
2018-05-06T05:01:47.500Z,3.67
2018-05-06T05:04:17.619Z,3.70
2018-05-06T05:06:45.717Z,3.67
2018-05-06T05:12:08.930Z,3.50
2018-05-06T05:14:36.699Z,4.53
2018-05-06T05:17:05.868Z,4.70
2018-05-06T05:19:34.827Z,4.60
2018-05-06T05:22:11.210Z,3.90
2018-05-06T05:24:39.786Z,3.80
2018-05-06T05:27:08.999Z,4.00
2018-05-06T05:29:37.418Z,3.97
2018-05-06T05:32:24.951Z,3.70
2018-05-06T05:34:53.065Z,4.07
2018-05-06T05:37:22.730Z,3.33
2018-05-06T05:39:51.157Z,3.47
2018-05-06T05:42:19.796Z,4.13
2018-05-06T05:44:47.488Z,3.67
2018-05-06T05:47:28.418Z,3.53
2018-05-06T05:49:56.507Z,3.63
2018-05-06T05:52:39.769Z,3.70
2018-05-06T05:55:08.241Z,3.60
2018-05-06T05:57:46.488Z,3.63
2018-05-06T06:00:15.347Z,3.17
2018-05-06T06:02:43.783Z,3.03
2018-05-06T06:05:11.446Z,3.70
2018-05-06T06:07:49.586Z,3.93
2018-05-06T06:10:17.646Z,3.90
2018-05-06T06:12:47.339Z,3.87
2018-05-06T06:15:15.752Z,3.53
2018-05-06T06:17:43.839Z,3.83
2018-05-06T06:20:12.260Z,3.57
2018-05-06T06:22:39.977Z,3.47
2018-05-06T06:25:08.391Z,3.37
2018-05-06T06:27:36.101Z,3.43
2018-05-06T06:30:04.237Z,3.53
2018-05-06T06:32:34.265Z,3.60
2018-05-06T06:35:02.692Z,3.57
2018-05-06T06:37:36.947Z,2.90
2018-05-06T06:40:05.429Z,3.60
2018-05-06T06:42:46.128Z,3.30
2018-05-06T06:45:14.993Z,3.60
2018-05-06T06:47:45.247Z,3.10
2018-05-06T06:50:14.299Z,3.30
2018-05-06T06:52:46.311Z,3.30
2018-05-06T06:55:14.559Z,3.13
2018-05-06T06:57:43.725Z,3.87
2018-05-06T07:00:11.400Z,3.40
2018-05-06T07:02:40.808Z,3.00
2018-05-06T07:05:08.502Z,2.80
2018-05-06T07:07:37.021Z,3.40
2018-05-06T07:10:04.756Z,3.03
2018-05-06T07:12:35.121Z,3.37
2018-05-06T07:15:03.585Z,2.90
2018-05-06T07:17:50.163Z,3.00
2018-05-06T07:20:19.168Z,3.30
2018-05-06T07:23:01.566Z,3.07
2018-05-06T07:25:30.132Z,3.00
2018-05-06T07:28:07.642Z,3.90
2018-05-06T07:30:36.083Z,3.43
2018-05-06T07:33:07.997Z,2.77
2018-05-06T07:35:37.067Z,3.07
2018-05-06T07:38:07.670Z,3.10
2018-05-06T07:40:35.319Z,3.23
2018-05-06T07:43:03.802Z,2.70
2018-05-06T07:45:31.492Z,3.17
2018-05-06T07:48:13.307Z,2.90
2018-05-06T07:50:41.767Z,3.20
2018-05-06T07:53:23.845Z,2.80
2018-05-06T07:55:52.055Z,2.93
2018-05-06T07:58:21.115Z,2.80
2018-05-06T08:00:49.548Z,3.00
2018-05-06T08:03:18.710Z,3.30
2018-05-06T08:05:46.352Z,3.60
2018-05-06T08:08:14.922Z,3.30
2018-05-06T08:10:43.998Z,3.63
2018-05-06T08:13:13.257Z,3.60
2018-05-06T08:15:41.784Z,3.57
2018-05-06T08:18:13.310Z,3.43
2018-05-06T08:20:40.983Z,3.20
2018-05-06T08:23:11.508Z,3.13
2018-05-06T08:25:39.185Z,3.40
2018-05-06T08:28:24.418Z,3.30
2018-05-06T08:30:53.399Z,3.73
2018-05-06T08:33:22.481Z,3.40
2018-05-06T08:35:50.722Z,3.10
2018-05-06T08:38:22.418Z,3.10
2018-05-06T08:40:50.119Z,3.20
2018-05-06T08:43:30.134Z,3.20
2018-05-06T08:45:59.344Z,3.63
2018-05-06T08:48:27.894Z,3.13
2018-05-06T08:50:56.501Z,2.70
2018-05-06T08:53:24.296Z,2.57
2018-05-06T08:55:54.332Z,3.43
2018-05-06T08:58:24.813Z,3.30
2018-05-06T09:00:53.842Z,2.97
2018-05-06T09:03:26.130Z,3.97
2018-05-06T09:05:54.214Z,2.90
2018-05-06T09:08:23.398Z,3.10
2018-05-06T09:10:51.068Z,2.63
2018-05-06T09:13:19.945Z,2.87
2018-05-06T09:15:47.615Z,2.50
2018-05-06T09:18:16.649Z,2.60
2018-05-06T09:20:45.146Z,2.60
2018-05-06T09:23:14.166Z,2.60
2018-05-06T09:25:41.982Z,2.70
2018-05-06T09:28:14.332Z,2.37
2018-05-06T09:30:43.420Z,2.80
2018-05-06T09:33:11.085Z,2.50
2018-05-06T09:35:40.910Z,2.50
2018-05-06T09:38:09.031Z,2.87
2018-05-06T09:40:38.068Z,2.60
2018-05-06T09:43:07.061Z,2.67
2018-05-06T09:45:36.317Z,2.83
2018-05-06T09:48:07.919Z,3.37
2018-05-06T09:50:36.915Z,3.53
2018-05-06T09:53:06.290Z,4.10
2018-05-06T09:55:34.346Z,2.80
2018-05-06T09:58:04.325Z,2.60
2018-05-06T10:00:33.515Z,2.70
2018-05-06T10:03:02.542Z,2.40
2018-05-06T10:05:31.555Z,2.47
2018-05-06T10:08:02.589Z,2.90
2018-05-06T10:10:30.689Z,2.60
2018-05-06T10:12:59.665Z,2.20
2018-05-06T10:15:28.852Z,2.67
2018-05-06T10:17:57.668Z,2.87
2018-05-06T10:20:26.143Z,2.97
2018-05-06T10:22:55.536Z,7.53
2018-05-06T10:25:24.840Z,2.73
2018-05-06T10:27:52.603Z,3.20
2018-05-06T10:30:20.672Z,3.23
2018-05-06T10:32:50.825Z,2.87
2018-05-06T10:35:19.803Z,2.10
2018-05-06T10:37:48.282Z,2.63
2018-05-06T10:40:16.371Z,2.70
2018-05-06T10:42:45.619Z,2.90
2018-05-06T10:45:15.000Z,2.40
2018-05-06T10:47:43.555Z,2.60
2018-05-06T10:50:12.002Z,3.33
2018-05-06T10:52:41.110Z,2.73
2018-05-06T10:55:09.914Z,2.50
2018-05-06T10:57:38.021Z,2.90
2018-05-06T11:00:06.488Z,2.80
2018-05-06T11:02:35.642Z,2.60
2018-05-06T11:05:03.741Z,2.23
2018-05-06T11:07:31.981Z,3.50
2018-05-06T11:09:59.639Z,2.80
2018-05-06T11:12:28.661Z,2.93
2018-05-06T11:14:57.824Z,2.47
2018-05-06T11:17:26.847Z,3.50
2018-05-06T11:19:56.016Z,3.07
2018-05-06T11:22:25.049Z,2.90
2018-05-06T11:24:53.860Z,2.13
2018-05-06T11:27:22.333Z,2.73
2018-05-06T11:29:50.772Z,2.97
2018-05-06T11:32:19.842Z,2.70
2018-05-06T11:34:49.107Z,2.70
2018-05-06T11:37:18.552Z,2.87
2018-05-06T11:39:47.697Z,3.23
2018-05-06T11:42:16.788Z,2.53
2018-05-06T11:44:45.780Z,2.60
2018-05-06T11:47:13.596Z,2.73
2018-05-06T11:49:42.095Z,3.00
2018-05-06T11:52:11.094Z,2.53
2018-05-06T11:54:40.059Z,2.50
2018-05-06T11:57:08.277Z,2.50
2018-05-06T11:59:36.740Z,2.47
2018-05-06T12:02:06.112Z,2.63
2018-05-06T12:04:35.140Z,1.80
2018-05-06T12:07:04.217Z,2.60
2018-05-06T12:09:31.900Z,3.07
2018-05-06T12:12:11.858Z,2.47
2018-05-06T12:14:39.978Z,2.20
2018-05-06T12:17:10.003Z,1.77
2018-05-06T12:19:39.162Z,1.90
2018-05-06T12:22:14.224Z,2.37
2018-05-06T12:24:42.331Z,2.30
2018-05-06T12:27:13.534Z,2.00
2018-05-06T12:29:42.581Z,1.67
2018-05-06T12:32:13.387Z,1.60
2018-05-06T12:34:41.103Z,1.80
2018-05-06T12:37:10.203Z,2.17
2018-05-06T12:39:40.018Z,2.00
2018-05-06T12:42:10.076Z,1.70
2018-05-06T12:44:38.889Z,1.97
2018-05-06T12:47:14.651Z,1.97
2018-05-06T12:49:43.576Z,2.20
2018-05-06T12:52:13.852Z,1.90
2018-05-06T12:54:42.848Z,2.40
2018-05-06T12:57:11.708Z,1.90
2018-05-06T12:59:41.117Z,2.00
2018-05-06T13:02:10.097Z,2.10
2018-05-06T13:04:39.133Z,1.80
2018-05-06T13:07:10.799Z,1.63
2018-05-06T13:09:38.885Z,2.33
2018-05-06T13:12:13.878Z,1.70
2018-05-06T13:14:42.986Z,2.03
2018-05-06T13:17:19.736Z,2.27
2018-05-06T13:19:49.175Z,2.03
2018-05-06T13:22:18.883Z,2.43
2018-05-06T13:24:47.318Z,2.00
2018-05-06T13:27:24.928Z,1.60
2018-05-06T13:29:53.800Z,1.90
2018-05-06T13:32:22.377Z,2.10
2018-05-06T13:34:51.530Z,1.60
2018-05-06T13:40:26.523Z,2.20
2018-05-06T13:42:54.632Z,2.00
2018-05-06T13:45:24.186Z,1.60
2018-05-06T13:47:53.227Z,1.60
2018-05-06T13:50:24.075Z,1.80
2018-05-06T13:52:52.571Z,2.03
2018-05-06T13:55:40.529Z,2.30
2018-05-06T13:58:08.953Z,1.63
2018-05-06T14:00:45.083Z,2.03
2018-05-06T14:03:13.528Z,2.13
2018-05-06T14:05:50.314Z,1.53
2018-05-06T14:08:19.308Z,1.60
2018-05-06T14:10:49.305Z,1.60
2018-05-06T14:13:16.964Z,1.80
2018-05-06T14:16:03.631Z,2.07
2018-05-06T14:18:32.051Z,1.50
2018-05-06T14:21:02.892Z,1.90
2018-05-06T14:23:30.964Z,1.90
2018-05-06T14:25:59.970Z,1.90
2018-05-06T14:28:28.379Z,1.70
2018-05-06T14:31:08.447Z,1.80
2018-05-06T14:33:37.628Z,1.70
2018-05-06T14:36:17.535Z,2.20
2018-05-06T14:38:45.650Z,2.00
2018-05-06T14:41:28.895Z,1.70
2018-05-06T14:43:57.922Z,2.47
2018-05-06T14:46:40.923Z,2.10
2018-05-06T14:49:08.665Z,1.70
2018-05-06T14:51:45.882Z,1.60
2018-05-06T14:54:14.382Z,1.80
2018-05-06T14:56:43.536Z,1.50
2018-05-06T14:59:12.581Z,1.40
2018-05-06T15:01:42.045Z,1.57
2018-05-06T15:04:09.727Z,1.87
2018-05-06T15:06:40.038Z,1.83
2018-05-06T15:09:08.554Z,1.90
2018-05-06T15:11:43.062Z,2.27
2018-05-06T15:14:11.925Z,2.43
2018-05-06T15:16:44.506Z,1.80
2018-05-06T15:19:13.593Z,1.80
2018-05-06T15:21:56.104Z,1.93
2018-05-06T15:24:25.243Z,1.80
2018-05-06T15:26:54.295Z,1.87
2018-05-06T15:29:22.009Z,1.90
2018-05-06T15:31:50.559Z,1.90
2018-05-06T15:34:19.687Z,1.60
2018-05-06T15:36:50.017Z,1.80
2018-05-06T15:39:18.904Z,1.90
2018-05-06T15:41:48.043Z,1.98
2018-05-06T15:44:17.187Z,2.00
2018-05-06T15:46:49.103Z,1.77
2018-05-06T15:49:17.603Z,1.70
2018-05-06T15:51:46.123Z,2.10
2018-05-06T15:54:14.236Z,1.98
2018-05-06T15:56:43.442Z,1.87
2018-05-06T15:59:12.453Z,2.10
2018-05-06T16:01:40.956Z,2.03
2018-05-06T16:04:15.483Z,1.83
2018-05-06T16:06:44.537Z,1.85
2018-05-06T16:09:13.652Z,1.87
2018-05-06T16:11:42.265Z,1.90
2018-05-06T16:14:10.768Z,2.22
2018-05-06T16:16:43.481Z,2.05
2018-05-06T16:19:12.965Z,1.95
2018-05-06T16:21:41.434Z,1.67
2018-05-06T16:24:10.961Z,2.08
2018-05-06T16:26:38.734Z,2.20
2018-05-06T16:29:09.217Z,2.10
2018-05-06T16:31:41.938Z,1.65
2018-05-06T16:34:13.778Z,1.83
2018-05-06T16:36:47.250Z,1.90
2018-05-06T16:39:18.030Z,2.30
2018-05-06T16:41:52.422Z,1.92
2018-05-06T16:44:24.121Z,1.77
2018-05-06T16:46:59.279Z,1.73
2018-05-06T16:49:34.758Z,1.80
2018-05-06T16:52:25.386Z,1.80
2018-05-06T16:54:59.158Z,1.87
2018-05-06T16:57:30.967Z,1.65
2018-05-06T17:00:02.578Z,2.28
2018-05-06T17:02:38.867Z,1.80
2018-05-06T17:05:10.230Z,1.90
2018-05-06T17:07:46.189Z,1.52
2018-05-06T17:10:18.304Z,1.50
2018-05-06T17:12:52.730Z,1.60
2018-05-06T17:15:24.702Z,1.58
2018-05-06T17:17:59.038Z,1.85
2018-05-06T17:20:26.958Z,1.85
2018-05-06T17:22:59.769Z,1.90
2018-05-06T17:25:27.913Z,2.03
2018-05-06T17:27:56.982Z,1.60
2018-05-06T17:30:25.804Z,2.10
2018-05-06T17:32:54.298Z,1.98
2018-05-06T17:35:22.367Z,2.00
2018-05-06T17:37:52.400Z,1.87
2018-05-06T17:40:20.457Z,1.87
2018-05-06T17:42:49.443Z,7.82
2018-05-06T17:45:18.593Z,2.13
2018-05-06T17:47:49.633Z,1.77
2018-05-06T17:50:17.714Z,1.70
2018-05-06T17:52:46.412Z,2.00
2018-05-06T17:55:14.132Z,2.47
2018-05-06T17:57:47.135Z,3.50
2018-05-06T18:00:16.366Z,2.10
2018-05-06T18:02:44.080Z,2.50
2018-05-06T18:05:12.146Z,3.73
2018-05-06T18:07:40.813Z,3.70
2018-05-06T18:10:09.259Z,3.00
2018-05-06T18:12:37.003Z,2.00
2018-05-06T18:15:05.434Z,1.77
2018-05-06T18:17:40.886Z,2.20
2018-05-06T18:20:09.382Z,2.10
2018-05-06T18:22:38.105Z,1.80
2018-05-06T18:25:07.021Z,1.90
2018-05-06T18:27:35.092Z,1.93
2018-05-06T18:30:03.586Z,2.00
2018-05-06T18:32:37.998Z,1.90
2018-05-06T18:35:06.167Z,2.53
2018-05-06T18:37:41.294Z,2.80
2018-05-06T18:40:10.378Z,2.43
2018-05-06T18:42:39.534Z,2.70
2018-05-06T18:45:08.401Z,2.47
2018-05-06T18:47:50.946Z,2.93
2018-05-06T18:50:19.382Z,2.70
2018-05-06T18:52:55.862Z,4.57
2018-05-06T18:55:23.555Z,2.37
2018-05-06T18:58:04.156Z,2.30
2018-05-06T19:00:32.692Z,3.73
2018-05-06T19:03:02.189Z,2.17
2018-05-06T19:05:30.237Z,2.30
2018-05-06T19:07:58.712Z,2.63
2018-05-06T19:10:27.542Z,2.43
2018-05-06T19:12:59.646Z,2.20
2018-05-06T19:15:27.783Z,2.60
2018-05-06T19:18:08.856Z,2.97
2018-05-06T19:20:37.482Z,2.80
2018-05-06T19:23:10.389Z,2.90
2018-05-06T19:25:39.337Z,2.40
2018-05-06T19:28:12.161Z,2.50
2018-05-06T19:30:40.219Z,2.10
2018-05-06T19:33:08.142Z,2.30
2018-05-06T19:35:36.460Z,2.40
2018-05-06T19:38:05.243Z,2.37
2018-05-06T19:40:32.918Z,2.60
2018-05-06T19:43:02.351Z,1.90
2018-05-06T19:45:31.199Z,2.03
2018-05-06T19:48:02.224Z,2.10
2018-05-06T19:50:31.375Z,2.17
2018-05-06T19:53:00.452Z,2.13
2018-05-06T19:55:28.881Z,2.00
2018-05-06T19:58:09.447Z,2.90
2018-05-06T20:00:37.593Z,2.60
2018-05-06T20:03:07.993Z,2.33
2018-05-06T20:05:36.450Z,2.67
2018-05-06T20:08:15.957Z,2.00
2018-05-06T20:10:44.105Z,2.00
2018-05-06T20:13:13.947Z,2.73
2018-05-06T20:15:42.022Z,2.53
2018-05-06T20:18:11.801Z,2.27
2018-05-06T20:20:40.246Z,2.20
2018-05-06T20:23:12.665Z,2.50
2018-05-06T20:25:40.737Z,2.23
2018-05-06T20:28:10.826Z,2.67
2018-05-06T20:30:39.225Z,2.20
2018-05-06T20:33:11.688Z,2.50
2018-05-06T20:35:39.343Z,2.40
2018-05-06T20:38:11.422Z,2.10
2018-05-06T20:40:39.871Z,2.83
2018-05-06T20:43:27.210Z,2.50
2018-05-06T20:45:55.645Z,2.87
2018-05-06T20:48:28.444Z,3.07
2018-05-06T20:50:56.156Z,3.30
2018-05-06T20:53:24.233Z,3.13
2018-05-06T20:55:53.454Z,2.63
2018-05-06T20:58:22.589Z,3.00
2018-05-06T21:00:50.348Z,2.73
2018-05-06T21:03:19.032Z,2.97
2018-05-06T21:05:48.229Z,2.77
2018-05-06T21:08:18.115Z,2.53
2018-05-06T21:10:46.157Z,3.10
2018-05-06T21:13:24.655Z,2.60
2018-05-06T21:15:53.107Z,2.93
2018-05-06T21:18:29.818Z,2.90
2018-05-06T21:20:57.472Z,3.17
2018-05-06T21:23:27.544Z,2.80
2018-05-06T21:25:55.650Z,2.97
2018-05-06T21:28:48.299Z,2.77
2018-05-06T21:31:16.011Z,2.70
2018-05-06T21:33:55.035Z,2.73
2018-05-06T21:36:23.463Z,2.60
2018-05-06T21:39:02.471Z,3.20
2018-05-06T21:41:30.873Z,3.30
2018-05-06T21:43:59.396Z,2.87
2018-05-06T21:46:28.401Z,2.70
2018-05-06T21:49:04.412Z,3.77
2018-05-06T21:51:32.182Z,2.67
2018-05-06T21:54:00.830Z,3.03
2018-05-06T21:56:29.675Z,2.90
2018-05-06T21:59:00.580Z,3.33
2018-05-06T22:01:29.570Z,2.80
2018-05-06T22:04:12.691Z,3.07
2018-05-06T22:06:41.286Z,3.23
2018-05-06T22:09:10.412Z,3.57
2018-05-06T22:11:38.465Z,3.30
2018-05-06T22:14:08.310Z,3.20
2018-05-06T22:16:36.352Z,2.93
2018-05-06T22:19:04.888Z,3.23
2018-05-06T22:21:33.711Z,3.10
2018-05-06T22:24:01.426Z,3.50
2018-05-06T22:26:30.456Z,3.20
2018-05-06T22:28:59.550Z,3.10
2018-05-06T22:31:28.058Z,3.23
2018-05-06T22:33:56.124Z,3.50
2018-05-06T22:36:25.501Z,2.87
2018-05-06T22:38:57.112Z,3.10
2018-05-06T22:41:26.147Z,3.03
2018-05-06T22:44:06.296Z,3.57
2018-05-06T22:46:33.970Z,3.07
2018-05-06T22:49:03.133Z,3.03
2018-05-06T22:51:31.158Z,3.10
2018-05-06T22:54:00.383Z,3.53
2018-05-06T22:56:28.438Z,3.50
2018-05-06T22:59:05.088Z,3.17
2018-05-06T23:01:33.185Z,3.33
2018-05-06T23:04:02.673Z,3.23
2018-05-06T23:06:30.342Z,3.10
2018-05-06T23:09:00.192Z,3.10
2018-05-06T23:11:28.274Z,3.30
2018-05-06T23:14:07.830Z,3.40
2018-05-06T23:16:36.296Z,3.20
2018-05-06T23:19:17.503Z,3.03
2018-05-06T23:21:45.967Z,3.27
2018-05-06T23:24:19.578Z,3.00
2018-05-06T23:26:47.276Z,3.00
2018-05-06T23:29:25.938Z,3.20
2018-05-06T23:31:53.601Z,3.50
2018-05-06T23:34:32.619Z,3.33
2018-05-06T23:37:01.042Z,3.57
2018-05-06T23:39:29.775Z,3.40
2018-05-06T23:41:58.201Z,3.47
2018-05-06T23:47:20.295Z,3.30
2018-05-06T23:49:48.774Z,3.30
2018-05-06T23:52:20.368Z,3.00
2018-05-06T23:54:49.599Z,3.33
2018-05-06T23:57:20.925Z,3.27
2018-05-06T23:59:49.351Z,3.20
